Time;durP1;ratioP1;P1;durP2;ratioP2;P2;SDS_P1;SDS_P2;PMS_P1;PMS_P2;Temp;Humidity;BMP_temperature;BMP_pressure;BME280_temperature;BME280_humidity;BME280_pressure;Samples;Min_cycle;Max_cycle;Signal;HPM_P1;HPM_P2
2023/08/12 00:01:17;;;;;;;119.40;113.40;;;;;;;;;;5075924;28;20032;-60
2023/08/12 00:03:42;;;;;;;103.35;98.22;;;;;;;;;;5072065;28;20346;-61
2023/08/12 00:06:08;;;;;;;91.18;86.68;;;;;;;;;;5076590;28;20340;-61
2023/08/12 00:08:33;;;;;;;93.57;88.93;;;;;;;;;;5078015;28;20473;-62
2023/08/12 00:10:58;;;;;;;98.70;93.82;;;;;;;;;;5077717;28;20039;-62
2023/08/12 00:13:24;;;;;;;80.88;76.82;;;;;;;;;;5078737;28;20390;-61
2023/08/12 00:15:49;;;;;;;66.05;62.70;;;;;;;;;;5077760;28;20060;-62
2023/08/12 00:18:15;;;;;;;60.03;56.97;;;;;;;;;;5075933;28;20028;-61
2023/08/12 00:20:42;;;;;;;50.00;47.42;;;;;;;;;;5074671;28;20102;-61
2023/08/12 00:23:08;;;;;;;38.40;36.30;;;;;;;;;;5077094;28;20090;-62
2023/08/12 00:25:33;;;;;;;43.92;41.63;;;;;;;;;;5076058;28;20043;-61
2023/08/12 00:27:59;;;;;;;37.17;35.22;;;;;;;;;;5077478;28;20036;-62
2023/08/12 00:30:24;;;;;;;42.45;40.25;;;;;;;;;;5081850;28;20045;-61
2023/08/12 00:32:49;;;;;;;40.72;38.63;;;;;;;;;;5078616;28;20024;-61
2023/08/12 00:35:15;;;;;;;45.70;43.33;;;;;;;;;;5081978;28;20443;-61
2023/08/12 00:37:40;;;;;;;72.75;69.15;;;;;;;;;;5078752;28;20221;-62
2023/08/12 00:40:06;;;;;;;80.28;76.00;;;;;;;;;;5082477;28;20518;-61
2023/08/12 00:42:32;;;;;;;92.97;88.30;;;;;;;;;;5077761;28;20032;-62
2023/08/12 00:44:58;;;;;;;73.32;69.63;;;;;;;;;;5078132;28;20090;-62
2023/08/12 00:47:23;;;;;;;86.35;82.03;;;;;;;;;;5078404;28;20032;-61
2023/08/12 00:49:49;;;;;;;71.82;67.90;;;;;;;;;;5081345;28;20071;-62
2023/08/12 00:52:15;;;;;;;71.85;68.15;;;;;;;;;;5078554;28;20101;-61
2023/08/12 00:54:41;;;;;;;82.85;78.72;;;;;;;;;;5079431;28;20044;-62
2023/08/12 00:57:07;;;;;;;103.32;98.10;;;;;;;;;;5076069;28;20437;-61
2023/08/12 00:59:35;;;;;;;93.47;88.80;;;;;;;;;;5082134;28;20102;-62
2023/08/12 01:02:01;;;;;;;90.75;86.20;;;;;;;;;;5079532;28;20338;-62
2023/08/12 01:04:27;;;;;;;83.60;79.45;;;;;;;;;;5075846;28;20524;-62
2023/08/12 01:06:52;;;;;;;79.05;75.10;;;;;;;;;;5079444;28;20127;-62
2023/08/12 01:09:18;;;;;;;80.15;76.15;;;;;;;;;;5077605;28;20127;-61
2023/08/12 01:11:58;;;;;;;74.30;70.57;;;;;;;;;;5080042;28;20386;-62
2023/08/12 01:14:45;;;;;;;76.07;72.25;;;;;;;;;;5079882;28;20052;-62
2023/08/12 01:17:14;;;;;;;60.75;57.70;;;;;;;;;;5083330;28;20078;-62
2023/08/12 01:19:40;;;;;;;69.05;65.55;;;;;;;;;;5079513;28;20064;-60
2023/08/12 01:22:11;;;;;;;54.80;51.97;;;;;;;;;;5079564;28;20070;-61
2023/08/12 01:24:38;;;;;;;57.97;55.03;;;;;;;;;;5076591;28;20450;-63
2023/08/12 01:27:05;;;;;;;52.10;49.42;;;;;;;;;;5080241;28;20038;-62
2023/08/12 01:29:37;;;;;;;55.17;52.38;;;;;;;;;;5076400;28;20055;-62
2023/08/12 01:32:37;;;;;;;58.30;55.30;;;;;;;;;;5077745;28;20113;-62
2023/08/12 01:35:17;;;;;;;49.22;46.60;;;;;;;;;;5078461;28;20031;-62
2023/08/12 01:37:43;;;;;;;45.25;42.90;;;;;;;;;;5080644;28;20033;-62
2023/08/12 01:40:10;;;;;;;51.10;48.10;;;;;;;;;;5076615;28;20046;-63
2023/08/12 01:42:36;;;;;;;48.22;45.70;;;;;;;;;;5077064;28;20081;-63
2023/08/12 01:45:02;;;;;;;52.20;49.50;;;;;;;;;;5079988;28;20428;-63
2023/08/12 01:47:28;;;;;;;59.47;56.17;;;;;;;;;;5078337;28;20036;-63
2023/08/12 01:49:54;;;;;;;53.22;50.42;;;;;;;;;;5078730;28;20090;-62
2023/08/12 01:52:19;;;;;;;62.67;59.42;;;;;;;;;;5076324;28;20047;-62
2023/08/12 01:54:44;;;;;;;63.90;60.05;;;;;;;;;;5077967;28;20032;-62
2023/08/12 01:57:11;;;;;;;80.30;76.13;;;;;;;;;;5076628;28;20261;-62
2023/08/12 01:59:36;;;;;;;59.60;56.42;;;;;;;;;;5076708;28;20430;-62
2023/08/12 02:02:02;;;;;;;58.88;55.80;;;;;;;;;;5076100;28;20039;-62
2023/08/12 02:04:28;;;;;;;114.20;108.47;;;;;;;;;;5075996;28;20043;-62
2023/08/12 02:06:54;;;;;;;84.72;80.40;;;;;;;;;;5080769;28;20361;-62
2023/08/12 02:09:19;;;;;;;80.30;76.22;;;;;;;;;;5075341;28;20039;-62
2023/08/12 02:11:45;;;;;;;103.00;96.93;;;;;;;;;;5076662;28;20028;-62
2023/08/12 02:14:11;;;;;;;95.03;90.20;;;;;;;;;;5074428;28;20045;-62
2023/08/12 02:16:36;;;;;;;97.25;92.35;;;;;;;;;;5077552;28;20265;-63
2023/08/12 02:19:01;;;;;;;78.43;74.45;;;;;;;;;;5079633;28;20266;-62
2023/08/12 02:21:27;;;;;;;95.38;90.57;;;;;;;;;;5075690;28;20469;-63
2023/08/12 02:23:52;;;;;;;97.93;93.03;;;;;;;;;;5076254;28;20119;-62
2023/08/12 02:26:17;;;;;;;85.18;80.97;;;;;;;;;;5077073;28;20119;-63
2023/08/12 02:28:43;;;;;;;98.75;93.75;;;;;;;;;;5073728;28;20107;-61
2023/08/12 02:31:08;;;;;;;115.82;110.00;;;;;;;;;;5077281;28;20076;-63
2023/08/12 02:33:33;;;;;;;106.05;100.75;;;;;;;;;;5078446;28;20039;-62
2023/08/12 02:35:59;;;;;;;92.57;87.97;;;;;;;;;;5075646;28;20492;-62
2023/08/12 02:38:24;;;;;;;111.18;104.72;;;;;;;;;;5075832;28;20040;-63
2023/08/12 02:40:50;;;;;;;79.10;74.97;;;;;;;;;;5075958;28;20124;-62
2023/08/12 02:43:16;;;;;;;79.97;75.95;;;;;;;;;;5076258;28;20492;-62
2023/08/12 02:45:42;;;;;;;121.63;115.50;;;;;;;;;;5075709;28;20492;-62
2023/08/12 02:48:09;;;;;;;123.72;117.50;;;;;;;;;;5077176;28;20063;-62
2023/08/12 02:50:35;;;;;;;68.03;64.55;;;;;;;;;;5075365;28;20063;-62
2023/08/12 02:53:00;;;;;;;71.75;68.07;;;;;;;;;;5076484;28;20036;-62
2023/08/12 02:55:25;;;;;;;83.72;79.50;;;;;;;;;;5076888;28;20036;-62
2023/08/12 02:57:51;;;;;;;95.38;90.45;;;;;;;;;;5075416;28;20032;-63
2023/08/12 03:00:17;;;;;;;95.45;90.63;;;;;;;;;;5077288;28;20051;-62
2023/08/12 03:02:43;;;;;;;106.68;101.22;;;;;;;;;;5076523;28;20031;-62
2023/08/12 03:05:08;;;;;;;116.88;111.05;;;;;;;;;;5074110;28;20055;-63
2023/08/12 03:07:34;;;;;;;124.57;118.30;;;;;;;;;;5072370;28;20047;-63
2023/08/12 03:09:59;;;;;;;132.40;125.80;;;;;;;;;;5075670;28;20478;-64
2023/08/12 03:12:24;;;;;;;135.00;128.32;;;;;;;;;;5076387;28;20040;-63
2023/08/12 03:14:50;;;;;;;126.90;120.63;;;;;;;;;;5077781;28;20288;-63
2023/08/12 03:17:15;;;;;;;122.80;116.45;;;;;;;;;;5078215;28;20118;-63
2023/08/12 03:19:41;;;;;;;152.88;145.00;;;;;;;;;;5075988;28;20046;-64
2023/08/12 03:22:06;;;;;;;152.05;144.52;;;;;;;;;;5078667;28;20189;-64
2023/08/12 03:24:31;;;;;;;140.20;133.20;;;;;;;;;;5073424;28;20059;-64
2023/08/12 03:26:57;;;;;;;137.02;130.23;;;;;;;;;;5076817;28;20047;-64
2023/08/12 03:29:22;;;;;;;162.82;154.80;;;;;;;;;;5076565;28;20036;-65
2023/08/12 03:31:47;;;;;;;168.10;159.77;;;;;;;;;;5073615;28;20094;-64
2023/08/12 03:34:13;;;;;;;180.85;171.98;;;;;;;;;;5079717;28;20106;-64
2023/08/12 03:36:38;;;;;;;191.23;181.75;;;;;;;;;;5078643;28;20055;-64
2023/08/12 03:39:04;;;;;;;204.60;193.85;;;;;;;;;;5077415;28;20043;-64
2023/08/12 03:41:30;;;;;;;197.65;187.90;;;;;;;;;;5083284;28;20028;-65
2023/08/12 03:43:56;;;;;;;157.80;149.98;;;;;;;;;;5075470;28;20058;-65
2023/08/12 03:46:21;;;;;;;175.48;166.82;;;;;;;;;;5079921;28;20401;-64
2023/08/12 03:48:46;;;;;;;172.85;164.30;;;;;;;;;;5076108;28;20383;-64
2023/08/12 03:51:12;;;;;;;204.02;193.90;;;;;;;;;;5076120;28;20036;-64
2023/08/12 03:53:37;;;;;;;175.15;166.45;;;;;;;;;;5074491;28;20410;-64
2023/08/12 03:56:03;;;;;;;156.13;148.35;;;;;;;;;;5072145;28;20036;-64
2023/08/12 03:58:29;;;;;;;117.70;111.55;;;;;;;;;;5074621;28;20089;-64
2023/08/12 04:00:54;;;;;;;112.78;107.20;;;;;;;;;;5076514;28;20652;-63
2023/08/12 04:03:20;;;;;;;148.45;141.02;;;;;;;;;;5080940;28;20035;-64
2023/08/12 04:05:51;;;;;;;136.65;129.85;;;;;;;;;;5080130;28;20149;-64
2023/08/12 04:08:17;;;;;;;103.80;98.50;;;;;;;;;;5078235;28;20668;-63
2023/08/12 04:10:45;;;;;;;122.93;116.72;;;;;;;;;;5079831;28;20059;-63
2023/08/12 04:13:10;;;;;;;149.77;141.95;;;;;;;;;;5080028;28;20033;-63
2023/08/12 04:15:35;;;;;;;210.55;200.23;;;;;;;;;;5078822;28;20513;-63
2023/08/12 04:18:01;;;;;;;181.07;172.00;;;;;;;;;;5080217;28;20423;-63
2023/08/12 04:20:26;;;;;;;147.25;139.90;;;;;;;;;;5080026;28;20056;-63
2023/08/12 04:22:51;;;;;;;112.50;106.90;;;;;;;;;;5081122;28;20528;-63
2023/08/12 04:25:17;;;;;;;118.65;112.75;;;;;;;;;;5081441;28;20493;-64
2023/08/12 04:27:42;;;;;;;117.35;111.50;;;;;;;;;;5078401;28;20516;-63
2023/08/12 04:30:08;;;;;;;109.07;103.55;;;;;;;;;;5080441;28;20062;-64
2023/08/12 04:32:34;;;;;;;107.78;102.43;;;;;;;;;;5078357;28;20102;-63
2023/08/12 04:34:59;;;;;;;131.90;125.32;;;;;;;;;;5078340;28;20108;-63
2023/08/12 04:37:25;;;;;;;118.70;112.70;;;;;;;;;;5081396;28;20132;-64
2023/08/12 04:39:51;;;;;;;126.28;120.00;;;;;;;;;;5062409;28;20032;-64
2023/08/12 04:42:16;;;;;;;134.10;127.47;;;;;;;;;;5078733;28;20035;-64
2023/08/12 04:44:41;;;;;;;116.32;110.55;;;;;;;;;;5080496;28;20028;-64
2023/08/12 04:47:07;;;;;;;109.85;104.40;;;;;;;;;;5082590;28;20039;-64
2023/08/12 04:49:32;;;;;;;103.68;98.47;;;;;;;;;;5081367;28;20461;-63
2023/08/12 04:51:58;;;;;;;105.85;100.57;;;;;;;;;;5079730;28;20458;-64
2023/08/12 04:54:23;;;;;;;102.75;97.45;;;;;;;;;;5081580;28;20020;-64
2023/08/12 04:56:49;;;;;;;86.28;81.97;;;;;;;;;;5082151;28;20477;-63
2023/08/12 04:59:14;;;;;;;63.10;59.92;;;;;;;;;;5077824;28;20056;-64
2023/08/12 05:01:40;;;;;;;55.25;52.13;;;;;;;;;;5080858;28;20038;-63
2023/08/12 05:04:05;;;;;;;51.08;48.35;;;;;;;;;;5079486;28;20100;-63
2023/08/12 05:06:31;;;;;;;45.45;43.10;;;;;;;;;;5080991;28;20501;-64
2023/08/12 05:08:56;;;;;;;55.15;52.28;;;;;;;;;;5076411;28;20026;-64
2023/08/12 05:11:21;;;;;;;43.05;40.63;;;;;;;;;;5078340;28;20465;-64
2023/08/12 05:13:47;;;;;;;62.78;59.58;;;;;;;;;;5078572;28;20040;-64
2023/08/12 05:16:12;;;;;;;68.45;64.88;;;;;;;;;;5082490;28;20123;-64
2023/08/12 05:18:37;;;;;;;59.08;56.08;;;;;;;;;;5080373;28;20071;-64
2023/08/12 05:21:03;;;;;;;61.08;57.92;;;;;;;;;;5079569;28;20032;-64
2023/08/12 05:23:28;;;;;;;75.07;71.22;;;;;;;;;;5081012;28;20111;-64
2023/08/12 05:25:53;;;;;;;69.10;65.45;;;;;;;;;;5078478;28;20469;-63
2023/08/12 05:28:19;;;;;;;60.13;57.08;;;;;;;;;;5076443;28;20401;-64
2023/08/12 05:30:45;;;;;;;61.65;58.53;;;;;;;;;;5079863;28;20453;-63
2023/08/12 05:33:11;;;;;;;82.22;78.07;;;;;;;;;;5081234;28;20394;-63
2023/08/12 05:35:36;;;;;;;93.72;89.05;;;;;;;;;;5077397;28;20036;-64
2023/08/12 05:38:02;;;;;;;76.43;72.53;;;;;;;;;;5075076;28;20105;-63
2023/08/12 05:40:28;;;;;;;77.38;73.53;;;;;;;;;;5078608;28;20094;-63
2023/08/12 05:42:53;;;;;;;68.57;65.13;;;;;;;;;;5078513;28;20451;-63
2023/08/12 05:45:18;;;;;;;54.63;51.42;;;;;;;;;;5076901;28;20118;-63
2023/08/12 05:47:44;;;;;;;46.78;44.30;;;;;;;;;;5075381;28;20093;-63
2023/08/12 05:50:09;;;;;;;54.33;51.50;;;;;;;;;;5075030;28;20454;-63
2023/08/12 05:52:35;;;;;;;72.20;68.50;;;;;;;;;;5072900;28;20024;-63
2023/08/12 05:55:00;;;;;;;79.10;75.10;;;;;;;;;;5074836;28;20072;-63
2023/08/12 05:57:26;;;;;;;81.68;77.43;;;;;;;;;;5076841;28;20020;-63
2023/08/12 05:59:51;;;;;;;89.93;85.45;;;;;;;;;;5077761;28;20506;-63
2023/08/12 06:02:17;;;;;;;84.90;80.57;;;;;;;;;;5079885;28;20036;-63
2023/08/12 06:04:42;;;;;;;95.53;90.78;;;;;;;;;;5079857;28;20039;-64
2023/08/12 06:07:07;;;;;;;82.97;78.80;;;;;;;;;;5079876;28;20093;-67
2023/08/12 06:09:33;;;;;;;68.93;65.45;;;;;;;;;;5075747;28;20047;-66
2023/08/12 06:11:58;;;;;;;57.50;54.53;;;;;;;;;;5074107;28;20060;-66
2023/08/12 06:14:23;;;;;;;72.47;68.82;;;;;;;;;;5080377;28;20052;-66
2023/08/12 06:16:49;;;;;;;66.18;62.88;;;;;;;;;;5083911;28;20437;-66
2023/08/12 06:19:14;;;;;;;80.18;76.15;;;;;;;;;;5077076;28;20519;-66
2023/08/12 06:21:39;;;;;;;87.25;82.88;;;;;;;;;;5075314;28;20037;-67
2023/08/12 06:24:05;;;;;;;70.45;66.72;;;;;;;;;;5076402;28;20119;-66
2023/08/12 06:26:30;;;;;;;83.10;78.97;;;;;;;;;;5078563;28;20471;-66
2023/08/12 06:28:56;;;;;;;126.97;120.60;;;;;;;;;;5077075;28;20085;-66
2023/08/12 06:31:21;;;;;;;89.45;84.90;;;;;;;;;;5079018;28;20032;-64
2023/08/12 06:33:46;;;;;;;118.53;112.53;;;;;;;;;;5077618;28;20040;-66
2023/08/12 06:36:12;;;;;;;119.40;113.38;;;;;;;;;;5076636;28;20071;-67
2023/08/12 06:38:37;;;;;;;124.40;118.15;;;;;;;;;;5079661;28;20036;-64
2023/08/12 06:41:03;;;;;;;117.95;111.97;;;;;;;;;;5076417;28;20104;-67
2023/08/12 06:43:28;;;;;;;133.68;126.82;;;;;;;;;;5076107;28;20035;-66
2023/08/12 06:45:53;;;;;;;96.15;91.30;;;;;;;;;;5073945;28;20028;-67
2023/08/12 06:48:19;;;;;;;87.05;82.50;;;;;;;;;;5071390;28;20028;-66
2023/08/12 06:50:45;;;;;;;126.82;120.13;;;;;;;;;;5076075;28;20386;-66
2023/08/12 06:53:10;;;;;;;97.93;92.72;;;;;;;;;;5078861;28;20069;-66
2023/08/12 06:55:36;;;;;;;100.38;95.30;;;;;;;;;;5075387;28;20036;-64
2023/08/12 06:58:01;;;;;;;87.20;82.80;;;;;;;;;;5073568;28;20059;-67
2023/08/12 07:00:26;;;;;;;90.80;86.18;;;;;;;;;;5074912;28;20031;-66
2023/08/12 07:02:52;;;;;;;94.38;89.53;;;;;;;;;;5078896;28;20037;-64
2023/08/12 07:05:17;;;;;;;137.43;130.40;;;;;;;;;;5076578;28;20040;-66
2023/08/12 07:07:42;;;;;;;143.80;136.20;;;;;;;;;;5079026;28;20043;-64
2023/08/12 07:10:08;;;;;;;38.25;36.25;;;;;;;;;;5071997;28;20037;-64
2023/08/12 07:12:34;;;;;;;34.53;32.60;;;;;;;;;;5075859;28;20057;-67
2023/08/12 07:14:59;;;;;;;61.60;58.45;;;;;;;;;;5077560;28;20068;-64
2023/08/12 07:17:25;;;;;;;50.22;47.63;;;;;;;;;;5077034;28;20038;-67
2023/08/12 07:19:50;;;;;;;26.63;25.02;;;;;;;;;;5077075;28;20043;-65
2023/08/12 07:22:19;;;;;;;84.00;79.65;;;;;;;;;;5075031;28;20035;-66
2023/08/12 07:24:44;;;;;;;51.53;48.72;;;;;;;;;;5077379;28;20481;-65
2023/08/12 07:27:10;;;;;;;38.38;36.33;;;;;;;;;;5076339;28;20050;-65
2023/08/12 07:29:35;;;;;;;27.77;24.38;;;;;;;;;;5077148;28;20499;-67
2023/08/12 07:32:01;;;;;;;27.17;25.70;;;;;;;;;;5074039;28;20055;-66
2023/08/12 07:34:26;;;;;;;27.08;25.60;;;;;;;;;;5075858;28;20052;-66
2023/08/12 07:36:51;;;;;;;27.15;25.65;;;;;;;;;;5076914;28;20370;-66
2023/08/12 07:39:17;;;;;;;28.75;27.15;;;;;;;;;;5077034;28;20032;-66
2023/08/12 07:41:42;;;;;;;27.88;26.38;;;;;;;;;;5078351;28;20078;-66
2023/08/12 07:44:08;;;;;;;29.48;27.83;;;;;;;;;;5073178;28;20046;-66
2023/08/12 07:46:33;;;;;;;28.05;26.45;;;;;;;;;;5077665;28;20043;-66
2023/08/12 07:48:59;;;;;;;30.23;28.52;;;;;;;;;;5076844;28;20031;-66
2023/08/12 07:51:24;;;;;;;30.13;28.45;;;;;;;;;;5075155;28;20528;-67
2023/08/12 07:53:50;;;;;;;30.83;29.13;;;;;;;;;;5078630;28;20043;-66
2023/08/12 07:56:15;;;;;;;30.25;28.65;;;;;;;;;;5075654;28;20048;-66
2023/08/12 07:58:41;;;;;;;33.10;31.30;;;;;;;;;;5072995;28;20099;-66
2023/08/12 08:01:08;;;;;;;33.10;31.25;;;;;;;;;;5075706;28;20028;-66
2023/08/12 08:03:33;;;;;;;31.13;29.42;;;;;;;;;;5074545;28;20024;-66
2023/08/12 08:05:59;;;;;;;35.00;33.10;;;;;;;;;;5078377;28;20456;-66
2023/08/12 08:08:24;;;;;;;36.65;34.72;;;;;;;;;;5076379;28;20032;-66
2023/08/12 08:10:50;;;;;;;34.08;32.25;;;;;;;;;;5071395;28;20036;-66
2023/08/12 08:13:15;;;;;;;40.35;38.25;;;;;;;;;;5076778;28;20411;-68
2023/08/12 08:15:40;;;;;;;36.83;34.72;;;;;;;;;;5075553;28;20020;-65
2023/08/12 08:18:06;;;;;;;35.38;33.55;;;;;;;;;;5074469;28;20660;-66
2023/08/12 08:20:31;;;;;;;35.33;33.40;;;;;;;;;;5077236;28;20032;-65
2023/08/12 08:22:57;;;;;;;36.15;33.47;;;;;;;;;;5074705;28;20040;-68
2023/08/12 08:25:22;;;;;;;36.50;34.50;;;;;;;;;;5074381;28;20037;-66
2023/08/12 08:27:48;;;;;;;34.20;32.33;;;;;;;;;;5076848;28;20036;-65
2023/08/12 08:30:13;;;;;;;33.03;31.33;;;;;;;;;;5075020;28;20067;-67
2023/08/12 08:32:39;;;;;;;35.13;33.33;;;;;;;;;;5074538;28;20108;-67
2023/08/12 08:35:05;;;;;;;38.88;36.67;;;;;;;;;;5078995;28;20047;-67
2023/08/12 08:37:30;;;;;;;35.10;33.20;;;;;;;;;;5079218;28;20028;-67
2023/08/12 08:39:56;;;;;;;35.45;33.58;;;;;;;;;;5078507;28;20040;-66
2023/08/12 08:42:24;;;;;;;40.42;38.20;;;;;;;;;;5074455;28;20619;-66
2023/08/12 08:44:55;;;;;;;36.28;34.33;;;;;;;;;;5078203;28;20036;-67
2023/08/12 08:47:26;;;;;;;41.78;39.53;;;;;;;;;;5078440;28;20028;-66
2023/08/12 08:49:56;;;;;;;66.60;63.10;;;;;;;;;;5080974;28;20039;-67
2023/08/12 08:52:22;;;;;;;53.47;50.70;;;;;;;;;;5081452;28;20398;-68
2023/08/12 08:54:48;;;;;;;59.15;56.15;;;;;;;;;;5083969;28;20044;-66
2023/08/12 08:57:13;;;;;;;59.47;56.45;;;;;;;;;;5082465;28;20370;-66
2023/08/12 08:59:39;;;;;;;41.10;38.70;;;;;;;;;;5077162;28;20070;-68
2023/08/12 09:02:05;;;;;;;48.15;45.70;;;;;;;;;;5080490;28;20485;-66
2023/08/12 09:04:31;;;;;;;36.97;35.00;;;;;;;;;;5077135;28;20070;-68
2023/08/12 09:06:58;;;;;;;38.30;36.30;;;;;;;;;;5078279;28;20052;-70
2023/08/12 09:09:25;;;;;;;40.70;38.63;;;;;;;;;;5085855;28;20040;-70
2023/08/12 09:11:52;;;;;;;58.38;55.40;;;;;;;;;;5075447;28;20476;-70
2023/08/12 09:14:18;;;;;;;76.82;73.00;;;;;;;;;;5075496;28;20169;-71
2023/08/12 09:16:43;;;;;;;62.20;59.03;;;;;;;;;;5079839;28;20111;-71
2023/08/12 09:19:09;;;;;;;61.38;58.28;;;;;;;;;;5078589;28;20036;-70
2023/08/12 09:21:34;;;;;;;61.47;58.42;;;;;;;;;;5082705;28;20032;-71
2023/08/12 09:24:08;;;;;;;55.30;52.40;;;;;;;;;;5080015;28;20032;-70
2023/08/12 09:26:33;;;;;;;53.67;50.97;;;;;;;;;;5076663;28;20032;-70
2023/08/12 09:29:00;;;;;;;46.70;44.20;;;;;;;;;;5076158;28;20032;-71
2023/08/12 09:31:30;;;;;;;50.80;47.97;;;;;;;;;;5080270;28;20032;-71
2023/08/12 09:33:59;;;;;;;;;;;;;;;;;;5079588;28;20043;-70
2023/08/12 09:36:28;;;;;;;31.13;29.45;;;;;;;;;;5079660;28;19926;-70
2023/08/12 09:38:54;;;;;;;39.70;37.67;;;;;;;;;;5078565;28;20020;-70
2023/08/12 09:41:23;;;;;;;33.20;31.42;;;;;;;;;;5079769;28;20040;-71
2023/08/12 09:43:48;;;;;;;33.60;31.85;;;;;;;;;;5077665;28;20032;-70
2023/08/12 09:46:14;;;;;;;30.23;28.63;;;;;;;;;;5080005;28;20063;-70
2023/08/12 09:48:40;;;;;;;32.92;31.10;;;;;;;;;;5078149;28;20043;-70
2023/08/12 09:51:06;;;;;;;31.23;29.63;;;;;;;;;;5078658;28;20028;-68
2023/08/12 09:53:32;;;;;;;31.08;29.42;;;;;;;;;;5082403;28;20075;-70
2023/08/12 09:56:05;;;;;;;28.92;27.40;;;;;;;;;;5080068;28;20028;-69
2023/08/12 09:58:32;;;;;;;28.83;27.33;;;;;;;;;;5076904;28;20362;-70
2023/08/12 10:00:57;;;;;;;31.35;29.65;;;;;;;;;;5076844;28;20032;-70
2023/08/12 10:03:24;;;;;;;26.45;25.02;;;;;;;;;;5078657;28;20342;-71
2023/08/12 10:05:50;;;;;;;26.98;25.15;;;;;;;;;;5077600;28;20028;-67
2023/08/12 10:08:17;;;;;;;28.02;26.52;;;;;;;;;;5081222;28;20042;-68
2023/08/12 10:10:43;;;;;;;34.05;32.15;;;;;;;;;;5078620;28;20056;-70
2023/08/12 10:13:10;;;;;;;29.85;28.15;;;;;;;;;;5075403;28;20032;-69
2023/08/12 10:15:39;;;;;;;27.35;25.88;;;;;;;;;;5067997;28;20336;-69
2023/08/12 10:18:06;;;;;;;27.52;26.02;;;;;;;;;;5082393;28;20130;-68
2023/08/12 10:20:32;;;;;;;33.63;31.83;;;;;;;;;;5079191;28;20039;-67
2023/08/12 10:23:00;;;;;;;51.40;48.60;;;;;;;;;;5075558;28;20039;-67
2023/08/12 10:25:32;;;;;;;89.28;84.70;;;;;;;;;;5078318;28;20032;-68
2023/08/12 10:27:57;;;;;;;143.77;136.40;;;;;;;;;;5082787;28;20071;-69
2023/08/12 10:30:23;;;;;;;114.63;108.95;;;;;;;;;;5079332;28;20048;-68
2023/08/12 10:32:49;;;;;;;122.63;116.13;;;;;;;;;;5078995;28;20028;-70
2023/08/12 10:35:14;;;;;;;93.63;88.60;;;;;;;;;;5079225;28;20083;-68
2023/08/12 10:37:40;;;;;;;88.70;84.28;;;;;;;;;;5078668;28;20305;-68
2023/08/12 10:40:10;;;;;;;91.93;87.32;;;;;;;;;;5076385;28;20036;-68
2023/08/12 10:42:48;;;;;;;131.75;124.70;;;;;;;;;;5077091;28;20339;-68
2023/08/12 10:45:15;;;;;;;170.73;161.63;;;;;;;;;;5076561;28;20071;-67
2023/08/12 10:47:48;;;;;;;168.65;159.93;;;;;;;;;;5071187;28;20405;-67
2023/08/12 10:50:18;;;;;;;163.73;155.52;;;;;;;;;;5077826;28;20044;-67
2023/08/12 10:52:45;;;;;;;136.65;129.63;;;;;;;;;;5076606;28;20055;-67
2023/08/12 10:55:25;;;;;;;149.48;141.93;;;;;;;;;;5078045;28;20036;-67
2023/08/12 10:57:54;;;;;;;;;;;;;;;;;;5076986;28;20032;-68
2023/08/12 11:00:23;;;;;;;178.75;169.80;;;;;;;;;;5079436;28;19953;-67
2023/08/12 11:02:51;;;;;;;203.63;193.15;;;;;;;;;;5077018;28;20083;-68
2023/08/12 11:05:18;;;;;;;205.65;195.35;;;;;;;;;;5074524;28;20059;-67
2023/08/12 11:08:01;;;;;;;192.23;182.45;;;;;;;;;;5076791;28;20375;-68
2023/08/12 11:10:32;;;;;;;193.48;183.48;;;;;;;;;;5074167;28;20048;-67
2023/08/12 11:12:57;;;;;;;;;;;;;;;;;;5080422;28;20033;-67
2023/08/12 11:15:29;;;;;;;179.30;170.35;;;;;;;;;;5075183;28;19912;-66
2023/08/12 11:17:54;;;;;;;133.55;126.88;;;;;;;;;;5074353;28;20035;-68
2023/08/12 11:20:21;;;;;;;116.80;110.68;;;;;;;;;;5080478;28;20032;-68
2023/08/12 11:22:46;;;;;;;124.03;117.85;;;;;;;;;;5075955;28;20135;-67
2023/08/12 11:25:13;;;;;;;146.60;139.20;;;;;;;;;;5080145;28;20158;-67
2023/08/12 11:27:40;;;;;;;188.45;179.15;;;;;;;;;;5076736;28;20111;-67
2023/08/12 11:30:07;;;;;;;208.48;198.13;;;;;;;;;;5075689;28;20107;-67
2023/08/12 11:32:32;;;;;;;231.73;219.52;;;;;;;;;;5075462;28;20051;-67
2023/08/12 11:35:00;;;;;;;251.43;238.88;;;;;;;;;;5079954;28;20070;-67
2023/08/12 11:37:26;;;;;;;250.60;238.20;;;;;;;;;;5078068;28;20601;-67
2023/08/12 11:39:52;;;;;;;225.48;214.32;;;;;;;;;;5081365;28;20199;-68
2023/08/12 11:42:18;;;;;;;153.93;146.13;;;;;;;;;;5080051;28;20059;-67
2023/08/12 11:44:43;;;;;;;99.53;94.57;;;;;;;;;;5077931;28;20029;-67
2023/08/12 11:47:09;;;;;;;78.38;72.78;;;;;;;;;;5080803;28;20446;-67
2023/08/12 11:49:34;;;;;;;76.88;72.78;;;;;;;;;;5075778;28;20116;-66
2023/08/12 11:52:00;;;;;;;91.18;86.68;;;;;;;;;;5075621;28;20032;-66
2023/08/12 11:54:26;;;;;;;95.47;90.57;;;;;;;;;;5078823;28;20039;-67
2023/08/12 11:56:52;;;;;;;102.45;97.40;;;;;;;;;;5076728;28;20109;-67
2023/08/12 11:59:17;;;;;;;81.55;77.53;;;;;;;;;;5073815;28;20067;-67
2023/08/12 12:01:48;;;;;;;93.10;88.22;;;;;;;;;;5078741;28;20131;-67
2023/08/12 12:04:14;;;;;;;88.53;84.15;;;;;;;;;;5076991;28;20043;-67
2023/08/12 12:06:39;;;;;;;91.45;86.93;;;;;;;;;;5076538;28;20063;-67
2023/08/12 12:09:09;;;;;;;83.20;79.10;;;;;;;;;;5076728;28;20062;-67
2023/08/12 12:11:38;;;;;;;92.32;87.72;;;;;;;;;;5078194;28;20070;-68
2023/08/12 12:14:06;;;;;;;90.90;86.38;;;;;;;;;;5072897;28;20362;-68
2023/08/12 12:16:48;;;;;;;90.80;86.30;;;;;;;;;;5075493;28;20040;-68
2023/08/12 12:19:21;;;;;;;77.35;73.47;;;;;;;;;;5079518;28;20032;-67
2023/08/12 12:21:53;;;;;;;82.20;78.15;;;;;;;;;;5079375;28;20032;-68
2023/08/12 12:24:19;;;;;;;79.47;75.53;;;;;;;;;;5081527;28;20028;-67
2023/08/12 12:26:46;;;;;;;89.57;85.10;;;;;;;;;;5079362;28;20526;-68
2023/08/12 12:29:13;;;;;;;95.28;90.47;;;;;;;;;;5078658;28;20043;-67
2023/08/12 12:31:39;;;;;;;72.05;68.47;;;;;;;;;;5077435;28;20036;-67
2023/08/12 12:34:05;;;;;;;72.88;69.22;;;;;;;;;;5078439;28;20062;-68
2023/08/12 12:36:34;;;;;;;72.30;68.65;;;;;;;;;;5078565;28;20466;-68
2023/08/12 12:38:59;;;;;;;64.65;61.40;;;;;;;;;;5077748;28;20039;-68
2023/08/12 12:41:24;;;;;;;70.85;67.25;;;;;;;;;;5079913;28;20040;-67
2023/08/12 12:43:50;;;;;;;89.22;84.10;;;;;;;;;;5077336;28;20033;-68
2023/08/12 12:46:15;;;;;;;120.63;114.63;;;;;;;;;;5086035;28;20171;-68
2023/08/12 12:48:41;;;;;;;109.47;104.03;;;;;;;;;;5078835;28;20024;-68
2023/08/12 12:51:07;;;;;;;129.05;122.57;;;;;;;;;;5082134;28;20036;-67
2023/08/12 12:53:32;;;;;;;130.52;123.93;;;;;;;;;;5079593;28;20047;-67
2023/08/12 12:56:03;;;;;;;119.32;113.40;;;;;;;;;;5078432;28;20089;-68
2023/08/12 12:58:30;;;;;;;117.60;111.55;;;;;;;;;;5078850;28;20024;-66
2023/08/12 13:00:55;;;;;;;87.90;83.47;;;;;;;;;;5078976;28;20105;-68
2023/08/12 13:03:21;;;;;;;53.53;50.83;;;;;;;;;;5078108;28;20468;-67
2023/08/12 13:05:46;;;;;;;76.72;72.93;;;;;;;;;;5081490;28;20057;-67
2023/08/12 13:08:11;;;;;;;52.38;49.72;;;;;;;;;;5079935;28;20146;-67
2023/08/12 13:10:37;;;;;;;60.10;57.08;;;;;;;;;;5077191;28;20324;-68
2023/08/12 13:13:03;;;;;;;90.13;85.68;;;;;;;;;;5077741;28;20059;-68
2023/08/12 13:15:28;;;;;;;103.75;98.65;;;;;;;;;;5078669;28;20164;-67
2023/08/12 13:17:54;;;;;;;69.65;66.20;;;;;;;;;;5076986;28;20471;-68
2023/08/12 13:20:19;;;;;;;99.28;94.20;;;;;;;;;;5079433;28;20519;-68
2023/08/12 13:22:44;;;;;;;103.70;98.63;;;;;;;;;;5074394;28;20277;-68
2023/08/12 13:25:09;;;;;;;84.47;80.30;;;;;;;;;;5078631;28;20033;-68
2023/08/12 13:27:35;;;;;;;113.55;108.00;;;;;;;;;;5076807;28;20032;-68
2023/08/12 13:30:00;;;;;;;112.80;107.28;;;;;;;;;;5075469;28;20033;-68
2023/08/12 13:32:26;;;;;;;96.05;91.32;;;;;;;;;;5079449;28;20470;-69
2023/08/12 13:34:51;;;;;;;111.28;105.78;;;;;;;;;;5079611;28;20033;-69
2023/08/12 13:37:16;;;;;;;117.40;111.63;;;;;;;;;;5081774;28;20353;-69
2023/08/12 13:39:42;;;;;;;110.45;104.97;;;;;;;;;;5078611;28;20481;-67
2023/08/12 13:42:07;;;;;;;87.15;82.80;;;;;;;;;;5075348;28;20432;-69
2023/08/12 13:44:32;;;;;;;102.50;97.47;;;;;;;;;;5077366;28;20031;-68
2023/08/12 13:46:58;;;;;;;105.43;100.20;;;;;;;;;;5080480;28;20024;-69
2023/08/12 13:49:23;;;;;;;86.65;82.40;;;;;;;;;;5078490;28;20390;-68
2023/08/12 13:51:48;;;;;;;72.07;68.35;;;;;;;;;;5081213;28;20036;-69
2023/08/12 13:54:14;;;;;;;75.55;71.80;;;;;;;;;;5079088;28;20711;-69
2023/08/12 13:56:39;;;;;;;63.50;60.30;;;;;;;;;;5082058;28;20040;-68
2023/08/12 13:59:04;;;;;;;69.57;66.15;;;;;;;;;;5078520;28;20089;-69
2023/08/12 14:01:30;;;;;;;66.93;63.42;;;;;;;;;;5079320;28;20130;-68
2023/08/12 14:03:55;;;;;;;56.03;53.20;;;;;;;;;;5080469;28;20514;-67
2023/08/12 14:06:21;;;;;;;49.88;47.38;;;;;;;;;;5079880;28;20176;-67